Time,TemperatureF,DewpointF,PressureIn,WindDirection,WindDirectionDegrees,WindSpeedMPH,WindSpeedGustMPH,Humidity,HourlyPrecipIn,Conditions,Clouds,dailyrainin,SoftwareType,DateUTC
2013-07-14 00:02:00,72.0,46.0,27.99,NW,307,3.0,8.0,39,0.00,,,0.00,,2013-07-14 07:02:00,
2013-07-14 00:11:00,72.0,46.0,27.99,NW,307,3.0,8.0,39,0.00,,,0.00,,2013-07-14 07:11:00,
2013-07-14 00:22:00,69.0,45.0,27.99,SE,130,1.0,3.0,42,0.00,,,0.00,,2013-07-14 07:22:00,
2013-07-14 00:32:00,69.0,45.0,27.99,SE,130,1.0,3.0,42,0.00,,,0.00,,2013-07-14 07:32:00,
2013-07-14 00:42:00,68.0,46.0,27.99,East,87,1.0,3.0,45,0.00,,,0.00,,2013-07-14 07:42:00,
2013-07-14 00:53:00,68.0,46.0,27.99,WNW,288,4.0,8.0,46,0.00,,,0.00,,2013-07-14 07:53:00,
2013-07-14 01:01:00,68.0,46.0,27.99,WNW,288,4.0,8.0,46,0.00,,,0.00,,2013-07-14 08:01:00,
2013-07-14 01:11:00,68.0,46.0,27.99,NE,44,0.0,9.0,46,0.00,,,0.00,,2013-07-14 08:11:00,
2013-07-14 01:22:00,68.0,47.0,27.99,WSW,252,2.0,7.0,47,0.00,,,0.00,,2013-07-14 08:22:00,
2013-07-14 01:32:00,68.0,47.0,27.99,WSW,252,2.0,7.0,47,0.00,,,0.00,,2013-07-14 08:32:00,
2013-07-14 01:42:00,68.0,47.0,27.99,West,278,6.0,10.0,47,0.00,,,0.00,,2013-07-14 08:42:00,
2013-07-14 01:53:00,68.0,48.0,27.99,WNW,290,6.0,12.0,49,0.00,,,0.00,,2013-07-14 08:53:00,
2013-07-14 02:01:00,68.0,48.0,27.99,WNW,290,6.0,12.0,49,0.00,,,0.00,,2013-07-14 09:01:00,
2013-07-14 02:11:00,67.0,48.0,28.00,West,277,7.0,14.0,50,0.00,,,0.00,,2013-07-14 09:11:00,
2013-07-14 02:22:00,67.0,48.0,28.00,NE,46,2.0,11.0,50,0.00,,,0.00,,2013-07-14 09:22:00,
2013-07-14 02:32:00,67.0,48.0,28.00,NE,46,2.0,11.0,50,0.00,,,0.00,,2013-07-14 09:32:00,
2013-07-14 02:42:00,65.0,46.0,28.00,ESE,115,0.0,1.0,51,0.00,,,0.00,,2013-07-14 09:42:00,
2013-07-14 02:52:00,65.0,47.0,28.00,NNW,336,4.0,11.0,52,0.00,,,0.00,,2013-07-14 09:52:00,
2013-07-14 03:01:00,65.0,47.0,28.00,NNW,336,4.0,11.0,52,0.00,,,0.00,,2013-07-14 10:01:00,
2013-07-14 03:11:00,64.0,47.0,28.00,WNW,297,4.0,10.0,54,0.00,,,0.00,,2013-07-14 10:11:00,
2013-07-14 03:21:00,64.0,47.0,28.00,NNE,22,4.0,11.0,55,0.00,,,0.00,,2013-07-14 10:21:00,
2013-07-14 03:32:00,64.0,47.0,28.00,NNE,22,4.0,11.0,55,0.00,,,0.00,,2013-07-14 10:32:00,
2013-07-14 03:42:00,64.0,47.0,28.00,NNE,21,1.0,6.0,55,0.00,,,0.00,,2013-07-14 10:42:00,
2013-07-14 03:53:00,64.0,48.0,28.01,ENE,57,0.0,3.0,56,0.00,,,0.00,,2013-07-14 10:53:00,
2013-07-14 04:01:00,64.0,48.0,28.01,ENE,57,0.0,3.0,56,0.00,,,0.00,,2013-07-14 11:01:00,
2013-07-14 04:11:00,63.0,48.0,28.01,NW,304,0.0,2.0,58,0.00,,,0.00,,2013-07-14 11:11:00,
2013-07-14 04:21:00,61.0,47.0,28.01,WNW,288,0.0,2.0,60,0.00,,,0.00,,2013-07-14 11:21:00,
2013-07-14 04:32:00,61.0,47.0,28.01,WNW,288,0.0,2.0,60,0.00,,,0.00,,2013-07-14 11:32:00,
2013-07-14 04:43:00,62.0,48.0,28.01,NW,317,5.0,8.0,60,0.00,,,0.00,,2013-07-14 11:43:00,
2013-07-14 04:53:00,61.0,48.0,28.01,SE,129,0.0,6.0,62,0.00,,,0.00,,2013-07-14 11:53:00,
2013-07-14 05:02:00,61.0,48.0,28.01,SE,129,0.0,6.0,62,0.00,,,0.00,,2013-07-14 12:02:00,
2013-07-14 05:11:00,60.0,48.0,28.01,SE,141,0.0,1.0,64,0.00,,,0.00,,2013-07-14 12:11:00,
2013-07-14 05:22:00,59.0,48.0,28.02,SSE,150,0.0,1.0,66,0.00,,,0.00,,2013-07-14 12:22:00,
2013-07-14 05:32:00,59.0,48.0,28.02,SSE,150,0.0,1.0,66,0.00,,,0.00,,2013-07-14 12:32:00,
2013-07-14 05:43:00,58.0,47.0,28.02,WNW,295,2.0,6.0,67,0.00,,,0.00,,2013-07-14 12:43:00,
2013-07-14 05:52:00,58.0,47.0,28.02,West,262,1.0,3.0,68,0.00,,,0.00,,2013-07-14 12:52:00,
2013-07-14 06:01:00,58.0,47.0,28.02,West,262,1.0,3.0,68,0.00,,,0.00,,2013-07-14 13:01:00,
2013-07-14 06:11:00,60.0,48.0,28.02,WNW,302,2.0,7.0,64,0.00,,,0.00,,2013-07-14 13:11:00,
2013-07-14 06:32:00,61.0,47.0,28.02,NW,307,3.0,8.0,60,0.00,,,0.00,,2013-07-14 13:32:00,
2013-07-14 06:42:00,62.0,47.0,28.02,NW,323,4.0,9.0,59,0.00,,,0.00,,2013-07-14 13:42:00,
2013-07-14 06:53:00,62.0,47.0,28.02,NW,319,7.0,14.0,58,0.00,,,0.00,,2013-07-14 13:53:00,
2013-07-14 07:01:00,62.0,47.0,28.02,NW,319,7.0,14.0,58,0.00,,,0.00,,2013-07-14 14:01:00,
2013-07-14 07:11:00,62.0,47.0,28.02,West,278,7.0,14.0,57,0.00,,,0.00,,2013-07-14 14:11:00,
2013-07-14 07:23:00,62.0,47.0,28.02,WNW,293,6.0,14.0,58,0.00,,,0.00,,2013-07-14 14:23:00,
2013-07-14 07:33:00,62.0,47.0,28.02,WNW,293,6.0,14.0,58,0.00,,,0.00,,2013-07-14 14:33:00,
2013-07-14 07:43:00,63.0,47.0,28.02,NW,323,8.0,13.0,56,0.00,,,0.00,,2013-07-14 14:43:00,
2013-07-14 07:53:00,64.0,47.0,28.02,NW,325,9.0,13.0,54,0.00,,,0.00,,2013-07-14 14:53:00,
2013-07-14 08:01:00,64.0,47.0,28.02,NW,325,9.0,13.0,54,0.00,,,0.00,,2013-07-14 15:01:00,
2013-07-14 08:11:00,65.0,48.0,28.02,NNW,330,4.0,12.0,54,0.00,,,0.00,,2013-07-14 15:11:00,
2013-07-14 08:22:00,65.0,47.0,28.02,West,259,4.0,11.0,52,0.00,,,0.00,,2013-07-14 15:22:00,
2013-07-14 08:32:00,65.0,47.0,28.02,West,259,4.0,11.0,52,0.00,,,0.00,,2013-07-14 15:32:00,
2013-07-14 08:42:00,66.0,48.0,28.02,WNW,295,6.0,10.0,52,0.00,,,0.00,,2013-07-14 15:42:00,
2013-07-14 08:53:00,67.0,48.0,28.02,NW,304,4.0,9.0,51,0.00,,,0.00,,2013-07-14 15:53:00,
2013-07-14 09:01:00,67.0,48.0,28.02,NW,304,4.0,9.0,51,0.00,,,0.00,,2013-07-14 16:01:00,
2013-07-14 09:11:00,67.0,48.0,28.01,WNW,293,5.0,8.0,50,0.00,,,0.00,,2013-07-14 16:11:00,
2013-07-14 09:22:00,68.0,49.0,28.01,North,351,2.0,8.0,50,0.00,,,0.00,,2013-07-14 16:22:00,
2013-07-14 09:32:00,68.0,49.0,28.01,North,351,2.0,8.0,50,0.00,,,0.00,,2013-07-14 16:32:00,
2013-07-14 09:43:00,69.0,48.0,28.01,North,354,2.0,8.0,47,0.00,,,0.00,,2013-07-14 16:43:00,
2013-07-14 09:53:00,71.0,48.0,28.00,NNW,342,2.0,5.0,44,0.00,,,0.00,,2013-07-14 16:53:00,
2013-07-14 10:02:00,71.0,48.0,28.00,NNW,342,2.0,5.0,44,0.00,,,0.00,,2013-07-14 17:02:00,
2013-07-14 10:11:00,73.0,51.0,27.99,NW,311,0.0,2.0,46,0.00,,,0.00,,2013-07-14 17:11:00,
2013-07-14 10:22:00,74.0,51.0,27.99,NE,40,0.0,2.0,44,0.00,,,0.00,,2013-07-14 17:22:00,
2013-07-14 10:32:00,74.0,51.0,27.99,NE,40,0.0,2.0,44,0.00,,,0.00,,2013-07-14 17:32:00,
2013-07-14 10:53:00,75.0,52.0,27.97,ESE,115,0.0,3.0,45,0.00,,,0.00,,2013-07-14 17:53:00,
2013-07-14 11:11:00,76.0,52.0,27.97,East,84,1.0,2.0,43,0.00,,,0.00,,2013-07-14 18:11:00,
2013-07-14 11:42:00,78.0,52.0,27.95,ESE,121,0.0,1.0,40,0.00,,,0.00,,2013-07-14 18:42:00,
2013-07-14 11:52:00,79.0,50.0,27.95,NNW,347,0.0,2.0,36,0.00,,,0.00,,2013-07-14 18:52:00,
2013-07-14 12:01:00,79.0,50.0,27.95,NNW,347,0.0,2.0,36,0.00,,,0.00,,2013-07-14 19:01:00,
2013-07-14 12:11:00,80.0,51.0,27.94,ESE,104,0.0,3.0,36,0.00,,,0.00,,2013-07-14 19:11:00,
2013-07-14 12:21:00,81.0,50.0,27.93,WSW,250,0.0,2.0,34,0.00,,,0.00,,2013-07-14 19:21:00,
2013-07-14 12:32:00,81.0,50.0,27.93,WSW,250,0.0,2.0,34,0.00,,,0.00,,2013-07-14 19:32:00,
2013-07-14 12:43:00,83.0,51.0,27.93,ENE,65,0.0,2.0,33,0.00,,,0.00,,2013-07-14 19:43:00,
2013-07-14 12:52:00,84.0,52.0,27.92,SE,141,0.0,3.0,33,0.00,,,0.00,,2013-07-14 19:52:00,
2013-07-14 13:11:00,85.0,49.0,27.91,SSE,150,0.0,3.0,29,0.00,,,0.00,,2013-07-14 20:11:00,
2013-07-14 13:22:00,87.0,49.0,27.90,East,87,0.0,3.0,27,0.00,,,0.00,,2013-07-14 20:22:00,
2013-07-14 13:43:00,88.0,49.0,27.90,WNW,284,0.0,3.0,26,0.00,,,0.00,,2013-07-14 20:43:00,
2013-07-14 13:53:00,88.0,49.0,27.90,WNW,284,0.0,3.0,26,0.00,,,0.00,,2013-07-14 20:53:00,
2013-07-14 14:11:00,90.0,47.0,27.88,SE,134,1.0,2.0,23,0.00,,,0.00,,2013-07-14 21:11:00,
2013-07-14 14:22:00,90.0,47.0,27.88,SE,134,1.0,2.0,23,0.00,,,0.00,,2013-07-14 21:22:00,
2013-07-14 14:32:00,89.0,45.0,27.87,NW,304,1.0,5.0,22,0.00,,,0.00,,2013-07-14 21:32:00,
2013-07-14 14:42:00,89.0,46.0,27.86,NE,47,0.0,4.0,23,0.00,,,0.00,,2013-07-14 21:42:00,
2013-07-14 14:52:00,90.0,45.0,27.86,ESE,107,1.0,4.0,21,0.00,,,0.00,,2013-07-14 21:52:00,
2013-07-14 15:01:00,90.0,45.0,27.86,ESE,107,1.0,4.0,21,0.00,,,0.00,,2013-07-14 22:01:00,
2013-07-14 15:32:00,91.0,43.0,27.84,WNW,302,1.0,6.0,19,0.00,,,0.00,,2013-07-14 22:32:00,
2013-07-14 15:42:00,89.0,40.0,27.83,NNW,335,6.0,9.0,18,0.00,,,0.00,,2013-07-14 22:42:00,
2013-07-14 15:53:00,90.0,42.0,27.83,North,350,1.0,8.0,19,0.00,,,0.00,,2013-07-14 22:53:00,
2013-07-14 16:01:00,90.0,42.0,27.83,North,350,1.0,8.0,19,0.00,,,0.00,,2013-07-14 23:01:00,
2013-07-14 16:11:00,93.0,45.0,27.82,NNE,22,0.0,2.0,19,0.00,,,0.00,,2013-07-14 23:11:00,
2013-07-14 16:22:00,91.0,39.0,27.81,West,276,4.0,8.0,16,0.00,,,0.00,,2013-07-14 23:22:00,
2013-07-14 16:32:00,91.0,39.0,27.81,West,276,4.0,8.0,16,0.00,,,0.00,,2013-07-14 23:32:00,
2013-07-14 16:42:00,91.0,40.0,27.81,NW,324,3.0,8.0,17,0.00,,,0.00,,2013-07-14 23:42:00,
2013-07-14 16:53:00,91.0,37.0,27.80,North,352,4.0,10.0,15,0.00,,,0.00,,2013-07-14 23:53:00,
2013-07-14 17:02:00,91.0,37.0,27.80,North,352,4.0,10.0,15,0.00,,,0.00,,2013-07-15 00:02:00,
2013-07-14 17:11:00,91.0,37.0,27.79,NW,322,6.0,11.0,15,0.00,,,0.00,,2013-07-15 00:11:00,
2013-07-14 17:21:00,91.0,31.0,27.79,NW,308,5.0,11.0,12,0.00,,,0.00,,2013-07-15 00:21:00,
2013-07-14 17:32:00,91.0,31.0,27.79,NW,308,5.0,11.0,12,0.00,,,0.00,,2013-07-15 00:32:00,
2013-07-14 17:43:00,91.0,31.0,27.78,WNW,289,6.0,11.0,12,0.00,,,0.00,,2013-07-15 00:43:00,
2013-07-14 17:53:00,91.0,31.0,27.78,NNW,338,6.0,12.0,12,0.00,,,0.00,,2013-07-15 00:53:00,
2013-07-14 18:01:00,91.0,31.0,27.78,NNW,338,6.0,12.0,12,0.00,,,0.00,,2013-07-15 01:01:00,
2013-07-14 18:11:00,91.0,29.0,27.77,NW,319,6.0,14.0,11,0.00,,,0.00,,2013-07-15 01:11:00,
2013-07-14 18:22:00,91.0,29.0,27.77,NW,319,6.0,14.0,11,0.00,,,0.00,,2013-07-15 01:22:00,
2013-07-14 18:32:00,91.0,31.0,27.77,NNW,332,5.0,13.0,12,0.00,,,0.00,,2013-07-15 01:32:00,
2013-07-14 18:43:00,91.0,33.0,27.77,WNW,301,5.0,11.0,13,0.00,,,0.00,,2013-07-15 01:43:00,
2013-07-14 18:53:00,90.0,33.0,27.77,West,278,8.0,15.0,13,0.00,,,0.00,,2013-07-15 01:53:00,
2013-07-14 19:02:00,90.0,33.0,27.77,West,278,8.0,15.0,13,0.00,,,0.00,,2013-07-15 02:02:00,
2013-07-14 19:11:00,90.0,33.0,27.77,WNW,293,7.0,13.0,13,0.00,,,0.00,,2013-07-15 02:11:00,
2013-07-14 19:22:00,89.0,34.0,27.77,WNW,301,8.0,14.0,14,0.00,,,0.00,,2013-07-15 02:22:00,
2013-07-14 19:32:00,89.0,34.0,27.77,WNW,301,8.0,14.0,14,0.00,,,0.00,,2013-07-15 02:32:00,
2013-07-14 19:42:00,88.0,35.0,27.78,WSW,238,5.0,13.0,15,0.00,,,0.00,,2013-07-15 02:42:00,
2013-07-14 19:53:00,88.0,35.0,27.78,WNW,295,5.0,11.0,15,0.00,,,0.00,,2013-07-15 02:53:00,
2013-07-14 20:01:00,88.0,35.0,27.78,WNW,295,5.0,11.0,15,0.00,,,0.00,,2013-07-15 03:01:00,
2013-07-14 20:11:00,86.0,33.0,27.78,WNW,285,6.0,11.0,15,0.00,,,0.00,,2013-07-15 03:11:00,
2013-07-14 20:21:00,84.0,34.0,27.79,NW,309,4.0,9.0,17,0.00,,,0.00,,2013-07-15 03:21:00,
2013-07-14 20:32:00,84.0,34.0,27.79,NW,309,4.0,9.0,17,0.00,,,0.00,,2013-07-15 03:32:00,
2013-07-14 20:42:00,83.0,34.0,27.79,NW,304,5.0,8.0,17,0.00,,,0.00,,2013-07-15 03:42:00,
2013-07-14 20:53:00,82.0,33.0,27.79,WNW,291,6.0,10.0,17,0.00,,,0.00,,2013-07-15 03:53:00,
2013-07-14 21:01:00,82.0,33.0,27.79,WNW,291,6.0,10.0,17,0.00,,,0.00,,2013-07-15 04:01:00,
2013-07-14 21:11:00,82.0,33.0,27.80,WNW,285,5.0,9.0,17,0.00,,,0.00,,2013-07-15 04:11:00,
2013-07-14 21:22:00,82.0,33.0,27.80,WNW,285,5.0,9.0,17,0.00,,,0.00,,2013-07-15 04:22:00,
2013-07-14 21:32:00,81.0,32.0,27.81,WNW,284,5.0,10.0,17,0.00,,,0.00,,2013-07-15 04:32:00,
2013-07-14 21:42:00,80.0,33.0,27.81,WNW,290,4.0,8.0,18,0.00,,,0.00,,2013-07-15 04:42:00,
2013-07-14 21:53:00,79.0,33.0,27.82,WNW,288,2.0,5.0,19,0.00,,,0.00,,2013-07-15 04:53:00,
2013-07-14 22:02:00,79.0,33.0,27.82,WNW,288,2.0,5.0,19,0.00,,,0.00,,2013-07-15 05:02:00,
2013-07-14 22:11:00,78.0,32.0,27.82,WNW,291,3.0,7.0,19,0.00,,,0.00,,2013-07-15 05:11:00,
2013-07-14 22:32:00,78.0,34.0,27.83,WNW,290,4.0,9.0,20,0.00,,,0.00,,2013-07-15 05:32:00,
2013-07-14 22:43:00,78.0,34.0,27.83,WNW,287,6.0,10.0,20,0.00,,,0.00,,2013-07-15 05:43:00,
2013-07-14 22:53:00,77.0,35.0,27.83,NW,315,4.0,10.0,22,0.00,,,0.00,,2013-07-15 05:53:00,
2013-07-14 23:02:00,77.0,35.0,27.83,NW,315,4.0,10.0,22,0.00,,,0.00,,2013-07-15 06:02:00,
2013-07-14 23:11:00,77.0,35.0,27.83,WNW,297,6.0,13.0,22,0.00,,,0.00,,2013-07-15 06:11:00,
2013-07-14 23:22:00,76.0,36.0,27.83,WNW,288,7.0,14.0,23,0.00,,,0.00,,2013-07-15 06:22:00,
2013-07-14 23:32:00,76.0,36.0,27.83,WNW,288,7.0,14.0,23,0.00,,,0.00,,2013-07-15 06:32:00,
2013-07-14 23:42:00,76.0,34.0,27.83,WNW,300,10.0,15.0,22,0.00,,,0.00,,2013-07-15 06:42:00,
2013-07-14 23:53:00,75.0,35.0,27.84,NW,316,9.0,18.0,23,0.00,,,0.00,,2013-07-15 06:53:00,